createdAt,value
2023-02-22T00:00:16.655Z,29.695
2023-02-22T00:05:16.603Z,29.694
2023-02-22T00:10:16.566Z,29.695
2023-02-22T00:15:16.508Z,29.701
2023-02-22T00:20:18.672Z,29.702
2023-02-22T00:25:16.548Z,29.707
2023-02-22T00:30:16.569Z,29.708
2023-02-22T00:35:16.621Z,29.705
2023-02-22T00:40:16.608Z,29.706
2023-02-22T00:45:16.612Z,29.711
2023-02-22T00:50:16.716Z,29.710
2023-02-22T00:55:16.601Z,29.715
2023-02-22T01:00:16.615Z,29.717
2023-02-22T01:05:16.746Z,29.720
2023-02-22T01:10:16.771Z,29.719
2023-02-22T01:15:16.741Z,29.719
2023-02-22T01:20:16.935Z,29.724
2023-02-22T01:25:16.894Z,29.727
2023-02-22T01:30:16.696Z,29.729
2023-02-22T01:35:16.656Z,29.732
2023-02-22T01:40:16.706Z,29.731
2023-02-22T01:45:16.777Z,29.736
2023-02-22T01:50:16.723Z,29.734
2023-02-22T01:55:16.640Z,29.740
2023-02-22T02:00:16.781Z,29.741
2023-02-22T02:05:16.938Z,29.742
2023-02-22T02:10:16.767Z,29.743
2023-02-22T02:15:16.831Z,29.746
2023-02-22T02:20:16.841Z,29.748
2023-02-22T02:25:16.815Z,29.747
2023-02-22T02:30:16.968Z,29.752
2023-02-22T02:35:17.558Z,29.753
2023-02-22T02:40:17.065Z,29.755
2023-02-22T02:45:16.857Z,29.757
2023-02-22T02:50:16.982Z,29.761
2023-02-22T02:55:16.861Z,29.761
2023-02-22T03:00:17.054Z,29.759
2023-02-22T03:05:16.955Z,29.760
2023-02-22T03:10:16.856Z,29.766
2023-02-22T03:15:16.937Z,29.771
2023-02-22T03:20:17.004Z,29.772
2023-02-22T03:25:16.960Z,29.771
2023-02-22T03:30:16.934Z,29.772
2023-02-22T03:35:17.080Z,29.774
2023-02-22T03:40:17.041Z,29.778
2023-02-22T03:45:16.988Z,29.777
2023-02-22T03:50:16.969Z,29.772
2023-02-22T03:55:16.913Z,29.776
2023-02-22T04:00:16.969Z,29.777
2023-02-22T04:05:16.981Z,29.782
2023-02-22T04:10:17.258Z,29.786
2023-02-22T04:15:16.993Z,29.791
2023-02-22T04:20:17.264Z,29.793
2023-02-22T04:25:17.016Z,29.794
2023-02-22T04:30:17.158Z,29.798
2023-02-22T04:35:17.030Z,29.797
2023-02-22T04:40:17.075Z,29.797
2023-02-22T04:45:17.143Z,29.801
2023-02-22T04:50:17.197Z,29.803
2023-02-22T04:55:17.070Z,29.807
2023-02-22T05:00:16.099Z,29.812
2023-02-22T05:05:16.131Z,29.813
2023-02-22T05:10:17.202Z,29.817
2023-02-22T05:15:16.158Z,29.820
2023-02-22T05:20:17.417Z,29.817
2023-02-22T05:25:16.181Z,29.819
2023-02-22T05:30:16.172Z,29.822
2023-02-22T05:35:16.153Z,29.824
2023-02-22T05:40:16.164Z,29.823
2023-02-22T05:45:16.214Z,29.828
2023-02-22T05:50:16.166Z,29.832
2023-02-22T05:55:16.280Z,29.838
2023-02-22T06:00:16.286Z,29.842
2023-02-22T06:05:16.408Z,29.844
2023-02-22T06:10:16.358Z,29.847
2023-02-22T06:15:16.307Z,29.849
2023-02-22T06:20:16.258Z,29.848
2023-02-22T06:25:16.805Z,29.850
2023-02-22T06:30:16.453Z,29.854
2023-02-22T06:35:16.435Z,29.853
2023-02-22T06:40:16.320Z,29.858
2023-02-22T06:45:16.390Z,29.854
2023-02-22T06:50:16.457Z,29.856
2023-02-22T06:55:16.342Z,29.859
2023-02-22T07:00:16.329Z,29.861
2023-02-22T07:05:16.405Z,29.858
2023-02-22T07:10:16.364Z,29.864
2023-02-22T07:15:16.430Z,29.865
2023-02-22T07:20:16.448Z,29.868
2023-02-22T07:25:16.558Z,29.872
2023-02-22T07:30:16.426Z,29.873
2023-02-22T07:35:16.456Z,29.876
2023-02-22T07:40:16.499Z,29.876
2023-02-22T07:45:16.487Z,29.872
2023-02-22T07:50:16.475Z,29.873
2023-02-22T07:55:16.456Z,29.877
2023-02-22T08:00:16.835Z,29.875
2023-02-22T08:05:16.677Z,29.878
2023-02-22T08:10:16.526Z,29.887
2023-02-22T08:15:16.518Z,29.886
2023-02-22T08:20:16.642Z,29.890
2023-02-22T08:25:16.553Z,29.893
2023-02-22T08:30:16.630Z,29.899
2023-02-22T08:35:16.606Z,29.908
2023-02-22T08:40:16.538Z,29.916
2023-02-22T08:45:16.621Z,29.915
2023-02-22T08:50:16.679Z,29.918
2023-02-22T08:55:16.597Z,29.923
2023-02-22T09:00:16.591Z,29.929
2023-02-22T09:05:16.665Z,29.935
2023-02-22T09:10:16.815Z,29.936
2023-02-22T09:15:16.774Z,29.940
2023-02-22T09:20:16.753Z,29.940
2023-02-22T09:25:17.519Z,29.941
2023-02-22T09:30:16.766Z,29.945
2023-02-22T09:35:16.685Z,29.956
2023-02-22T09:40:16.667Z,29.961
2023-02-22T09:45:16.799Z,29.965
2023-02-22T09:50:16.840Z,29.968
2023-02-22T09:55:16.770Z,29.972
2023-02-22T10:00:16.813Z,29.974
2023-02-22T10:05:17.012Z,29.972
2023-02-22T10:10:16.716Z,29.974
2023-02-22T10:15:16.780Z,29.968
2023-02-22T10:20:16.852Z,29.977
2023-02-22T10:25:16.961Z,29.976
2023-02-22T10:30:24.400Z,29.979
2023-02-22T10:35:16.835Z,29.986
2023-02-22T10:40:16.960Z,29.988
2023-02-22T10:45:16.867Z,29.989
2023-02-22T10:50:16.827Z,29.989
2023-02-22T10:55:16.855Z,29.991
2023-02-22T11:00:17.148Z,29.989
2023-02-22T11:05:17.052Z,29.995
2023-02-22T11:10:16.963Z,29.997
2023-02-22T11:15:17.067Z,30.000
2023-02-22T11:20:16.948Z,29.999
2023-02-22T11:25:17.167Z,30.003
2023-02-22T11:30:17.126Z,30.005
2023-02-22T11:35:16.958Z,30.004
2023-02-22T11:40:17.085Z,30.011
2023-02-22T11:45:16.919Z,30.013
2023-02-22T11:50:17.020Z,30.018
2023-02-22T11:55:17.058Z,30.018
2023-02-22T12:00:17.152Z,30.028
2023-02-22T12:05:17.081Z,30.028
2023-02-22T12:10:17.039Z,30.036
2023-02-22T12:15:17.150Z,30.041
2023-02-22T12:20:17.038Z,30.048
2023-02-22T12:25:17.182Z,30.050
2023-02-22T12:30:17.231Z,30.054
2023-02-22T12:35:17.028Z,30.057
2023-02-22T12:40:17.171Z,30.059
2023-02-22T12:45:17.189Z,30.066
2023-02-22T12:50:17.458Z,30.077
2023-02-22T12:55:17.257Z,30.077
2023-02-22T13:00:17.139Z,30.077
2023-02-22T13:05:17.172Z,30.076
2023-02-22T13:10:17.165Z,30.086
2023-02-22T13:15:17.282Z,30.087
2023-02-22T13:20:17.261Z,30.087
2023-02-22T13:25:17.215Z,30.089
2023-02-22T13:30:17.348Z,30.093
2023-02-22T13:35:17.270Z,30.096
2023-02-22T13:40:17.261Z,30.093
2023-02-22T13:45:17.240Z,30.093
2023-02-22T13:50:17.400Z,30.094
2023-02-22T13:55:17.324Z,30.091
2023-02-22T14:00:17.456Z,30.092
2023-02-22T14:05:17.350Z,30.090
2023-02-22T14:10:17.271Z,30.091
2023-02-22T14:15:32.697Z,30.090
2023-02-22T14:20:17.315Z,30.091
2023-02-22T14:25:27.782Z,30.091
2023-02-22T14:30:17.375Z,30.088
2023-02-22T14:35:27.342Z,30.083
2023-02-22T14:40:17.402Z,30.082
2023-02-22T14:45:17.379Z,30.076
2023-02-22T14:50:15.351Z,30.075
2023-02-22T14:55:15.442Z,30.080
2023-02-22T15:00:15.543Z,30.082
2023-02-22T15:05:15.502Z,30.086
2023-02-22T15:10:15.452Z,30.088
2023-02-22T15:15:15.637Z,30.089
2023-02-22T15:20:15.617Z,30.096
2023-02-22T15:25:15.477Z,30.101
2023-02-22T15:30:15.553Z,30.101
2023-02-22T15:35:15.693Z,30.106
2023-02-22T15:40:15.650Z,30.105
2023-02-22T15:45:15.481Z,30.105
2023-02-22T15:50:15.697Z,30.105
2023-02-22T15:55:15.461Z,30.112
2023-02-22T16:00:15.603Z,30.119
2023-02-22T16:05:15.611Z,30.119
2023-02-22T16:10:15.768Z,30.111
2023-02-22T16:15:15.709Z,30.103
2023-02-22T16:20:15.703Z,30.095
2023-02-22T16:25:15.635Z,30.090
2023-02-22T16:30:23.908Z,30.091
2023-02-22T16:35:15.676Z,30.085
2023-02-22T16:40:15.755Z,30.089
2023-02-22T16:45:15.720Z,30.086
2023-02-22T16:50:15.727Z,30.091
2023-02-22T16:55:15.709Z,30.099
2023-02-22T17:00:15.715Z,30.098
2023-02-22T17:05:15.881Z,30.105
2023-02-22T17:10:15.885Z,30.104
2023-02-22T17:15:15.720Z,30.108
2023-02-22T17:20:15.747Z,30.107
2023-02-22T17:25:15.782Z,30.115
2023-02-22T17:30:15.781Z,30.109
2023-02-22T17:35:15.777Z,30.109
2023-02-22T17:40:15.841Z,30.106
2023-02-22T17:45:15.828Z,30.105
2023-02-22T17:50:15.951Z,30.104
2023-02-22T17:55:15.932Z,30.104
2023-02-22T18:00:15.895Z,30.107
2023-02-22T18:05:15.780Z,30.104
2023-02-22T18:10:15.810Z,30.096
2023-02-22T18:15:15.888Z,30.096
2023-02-22T18:20:15.848Z,30.093
2023-02-22T18:25:15.933Z,30.099
2023-02-22T18:30:15.971Z,30.097
2023-02-22T18:35:15.894Z,30.095
2023-02-22T18:40:15.872Z,30.096
2023-02-22T18:45:15.882Z,30.097
2023-02-22T18:50:15.947Z,30.098
2023-02-22T18:55:16.096Z,30.105
2023-02-22T19:00:16.084Z,30.098
2023-02-22T19:05:15.954Z,30.093
2023-02-22T19:10:16.008Z,30.089
2023-02-22T19:15:16.102Z,30.095
2023-02-22T19:20:16.114Z,30.099
2023-02-22T19:25:16.143Z,30.099
2023-02-22T19:30:16.151Z,30.099
2023-02-22T19:35:15.940Z,30.095
2023-02-22T19:40:16.092Z,30.094
2023-02-22T19:45:16.167Z,30.093
2023-02-22T19:50:16.102Z,30.087
2023-02-22T19:55:16.014Z,30.087
2023-02-22T20:00:16.170Z,30.093
2023-02-22T20:05:16.137Z,30.094
2023-02-22T20:10:16.140Z,30.098
2023-02-22T20:15:16.121Z,30.105
2023-02-22T20:20:16.113Z,30.114
2023-02-22T20:25:16.108Z,30.117
2023-02-22T20:30:16.218Z,30.119
2023-02-22T20:35:16.262Z,30.117
2023-02-22T20:40:16.174Z,30.118
2023-02-22T20:45:16.212Z,30.117
2023-02-22T20:50:16.273Z,30.118
2023-02-22T20:55:16.260Z,30.120
2023-02-22T21:00:16.188Z,30.122
2023-02-22T21:05:16.354Z,30.126
2023-02-22T21:10:16.189Z,30.124
2023-02-22T21:15:16.214Z,30.127
2023-02-22T21:20:16.328Z,30.129
2023-02-22T21:25:16.311Z,30.136
2023-02-22T21:30:16.271Z,30.134
2023-02-22T21:35:16.428Z,30.134
2023-02-22T21:40:16.907Z,30.135
2023-02-22T21:45:16.557Z,30.132
2023-02-22T21:50:16.354Z,30.129
2023-02-22T21:55:16.242Z,30.129
2023-02-22T22:00:16.409Z,30.129
2023-02-22T22:05:16.331Z,30.129
2023-02-22T22:10:16.358Z,30.131
2023-02-22T22:15:16.391Z,30.124
2023-02-22T22:20:16.417Z,30.124
2023-02-22T22:25:16.375Z,30.123
2023-02-22T22:30:16.427Z,30.124
2023-02-22T22:35:16.448Z,30.130
2023-02-22T22:40:16.496Z,30.136
2023-02-22T22:45:16.421Z,30.136
2023-02-22T22:50:16.503Z,30.135
2023-02-22T22:55:16.572Z,30.136
2023-02-22T23:00:16.509Z,30.140
2023-02-22T23:05:16.662Z,30.137
2023-02-22T23:10:16.647Z,30.141
2023-02-22T23:15:16.454Z,30.145
2023-02-22T23:20:16.601Z,30.150
2023-02-22T23:25:16.535Z,30.145
2023-02-22T23:30:16.709Z,30.142
2023-02-22T23:35:16.559Z,30.141
2023-02-22T23:40:16.520Z,30.139
2023-02-22T23:45:16.562Z,30.135
2023-02-22T23:50:16.634Z,30.133
2023-02-22T23:55:16.567Z,30.136
